sensor_id;sensor_type;location;lat;lon;timestamp;temperature;humidity
23748;DHT22;12054;53.662;10.126;2022-07-05T00:00:57;17.50;91.40
23748;DHT22;12054;53.662;10.126;2022-07-05T00:03:23;17.50;91.50
23748;DHT22;12054;53.662;10.126;2022-07-05T00:05:48;17.50;91.50
23748;DHT22;12054;53.662;10.126;2022-07-05T00:08:14;17.50;91.60
23748;DHT22;12054;53.662;10.126;2022-07-05T00:10:40;17.40;91.70
23748;DHT22;12054;53.662;10.126;2022-07-05T00:13:06;17.40;91.80
23748;DHT22;12054;53.662;10.126;2022-07-05T00:15:32;17.40;91.80
23748;DHT22;12054;53.662;10.126;2022-07-05T00:17:57;17.40;91.90
23748;DHT22;12054;53.662;10.126;2022-07-05T00:20:23;17.40;92.00
23748;DHT22;12054;53.662;10.126;2022-07-05T00:22:49;17.40;92.10
23748;DHT22;12054;53.662;10.126;2022-07-05T00:25:14;17.30;92.10
23748;DHT22;12054;53.662;10.126;2022-07-05T00:27:40;17.30;92.10
23748;DHT22;12054;53.662;10.126;2022-07-05T00:30:07;17.30;92.20
23748;DHT22;12054;53.662;10.126;2022-07-05T00:32:33;17.30;92.20
23748;DHT22;12054;53.662;10.126;2022-07-05T00:34:58;17.30;92.30
23748;DHT22;12054;53.662;10.126;2022-07-05T00:37:24;17.20;92.30
23748;DHT22;12054;53.662;10.126;2022-07-05T00:39:50;17.20;92.40
23748;DHT22;12054;53.662;10.126;2022-07-05T00:42:15;17.20;92.40
23748;DHT22;12054;53.662;10.126;2022-07-05T00:44:41;17.20;92.50
23748;DHT22;12054;53.662;10.126;2022-07-05T00:47:09;17.20;92.50
23748;DHT22;12054;53.662;10.126;2022-07-05T00:49:36;17.20;92.50
23748;DHT22;12054;53.662;10.126;2022-07-05T00:52:03;17.10;92.60
23748;DHT22;12054;53.662;10.126;2022-07-05T00:54:32;17.20;92.60
23748;DHT22;12054;53.662;10.126;2022-07-05T00:56:58;17.10;92.60
23748;DHT22;12054;53.662;10.126;2022-07-05T00:59:24;17.10;92.70
23748;DHT22;12054;53.662;10.126;2022-07-05T01:01:50;17.10;92.70
23748;DHT22;12054;53.662;10.126;2022-07-05T01:04:16;17.00;92.80
23748;DHT22;12054;53.662;10.126;2022-07-05T01:06:43;17.00;92.80
23748;DHT22;12054;53.662;10.126;2022-07-05T01:09:12;17.00;92.90
23748;DHT22;12054;53.662;10.126;2022-07-05T01:11:39;17.00;92.90
23748;DHT22;12054;53.662;10.126;2022-07-05T01:14:06;17.00;93.00
23748;DHT22;12054;53.662;10.126;2022-07-05T01:16:38;16.90;93.00
23748;DHT22;12054;53.662;10.126;2022-07-05T01:19:05;16.90;93.10
23748;DHT22;12054;53.662;10.126;2022-07-05T01:21:42;16.90;93.10
23748;DHT22;12054;53.662;10.126;2022-07-05T01:24:15;16.90;93.20
23748;DHT22;12054;53.662;10.126;2022-07-05T01:26:43;16.90;93.20
23748;DHT22;12054;53.662;10.126;2022-07-05T01:29:09;16.80;93.20
23748;DHT22;12054;53.662;10.126;2022-07-05T01:31:39;16.80;93.30
23748;DHT22;12054;53.662;10.126;2022-07-05T01:34:05;16.80;93.40
23748;DHT22;12054;53.662;10.126;2022-07-05T01:36:32;16.80;93.40
23748;DHT22;12054;53.662;10.126;2022-07-05T01:39:00;16.80;93.50
23748;DHT22;12054;53.662;10.126;2022-07-05T01:41:25;16.80;93.50
23748;DHT22;12054;53.662;10.126;2022-07-05T01:43:51;16.70;93.50
23748;DHT22;12054;53.662;10.126;2022-07-05T01:46:17;16.70;93.50
23748;DHT22;12054;53.662;10.126;2022-07-05T01:48:46;16.70;93.60
23748;DHT22;12054;53.662;10.126;2022-07-05T01:51:21;16.70;93.70
23748;DHT22;12054;53.662;10.126;2022-07-05T01:53:49;16.60;93.70
23748;DHT22;12054;53.662;10.126;2022-07-05T01:56:16;16.60;93.80
23748;DHT22;12054;53.662;10.126;2022-07-05T01:58:42;16.60;93.80
23748;DHT22;12054;53.662;10.126;2022-07-05T02:01:08;16.60;93.90
23748;DHT22;12054;53.662;10.126;2022-07-05T02:03:34;16.60;94.00
23748;DHT22;12054;53.662;10.126;2022-07-05T02:06:01;16.60;94.00
23748;DHT22;12054;53.662;10.126;2022-07-05T02:08:30;16.50;94.00
23748;DHT22;12054;53.662;10.126;2022-07-05T02:10:56;16.50;94.00
23748;DHT22;12054;53.662;10.126;2022-07-05T02:13:22;16.50;94.10
23748;DHT22;12054;53.662;10.126;2022-07-05T02:15:48;16.50;94.20
23748;DHT22;12054;53.662;10.126;2022-07-05T02:18:13;16.50;94.20
23748;DHT22;12054;53.662;10.126;2022-07-05T02:20:40;16.40;94.20
23748;DHT22;12054;53.662;10.126;2022-07-05T02:23:06;16.40;94.30
23748;DHT22;12054;53.662;10.126;2022-07-05T02:25:32;16.40;94.30
23748;DHT22;12054;53.662;10.126;2022-07-05T02:27:58;16.40;94.40
23748;DHT22;12054;53.662;10.126;2022-07-05T02:30:23;16.40;94.40
23748;DHT22;12054;53.662;10.126;2022-07-05T02:32:49;16.40;94.50
23748;DHT22;12054;53.662;10.126;2022-07-05T02:35:15;16.40;94.50
23748;DHT22;12054;53.662;10.126;2022-07-05T02:37:40;16.30;94.50
23748;DHT22;12054;53.662;10.126;2022-07-05T02:40:10;16.30;94.60
23748;DHT22;12054;53.662;10.126;2022-07-05T02:42:37;16.30;94.70
23748;DHT22;12054;53.662;10.126;2022-07-05T02:45:04;16.30;94.70
23748;DHT22;12054;53.662;10.126;2022-07-05T02:47:30;16.20;94.80
23748;DHT22;12054;53.662;10.126;2022-07-05T02:49:58;16.20;94.80
23748;DHT22;12054;53.662;10.126;2022-07-05T02:52:23;16.20;94.90
23748;DHT22;12054;53.662;10.126;2022-07-05T02:54:49;16.20;94.90
23748;DHT22;12054;53.662;10.126;2022-07-05T02:57:15;16.20;95.00
23748;DHT22;12054;53.662;10.126;2022-07-05T02:59:40;16.20;95.10
23748;DHT22;12054;53.662;10.126;2022-07-05T03:02:06;16.20;95.10
23748;DHT22;12054;53.662;10.126;2022-07-05T03:04:31;16.10;95.20
23748;DHT22;12054;53.662;10.126;2022-07-05T03:06:57;16.10;95.20
23748;DHT22;12054;53.662;10.126;2022-07-05T03:09:22;16.10;95.30
23748;DHT22;12054;53.662;10.126;2022-07-05T03:11:48;16.10;95.30
23748;DHT22;12054;53.662;10.126;2022-07-05T03:14:13;16.10;95.40
23748;DHT22;12054;53.662;10.126;2022-07-05T03:16:39;16.10;95.50
23748;DHT22;12054;53.662;10.126;2022-07-05T03:19:04;16.00;95.50
23748;DHT22;12054;53.662;10.126;2022-07-05T03:21:30;16.00;95.50
23748;DHT22;12054;53.662;10.126;2022-07-05T03:23:55;16.00;95.60
23748;DHT22;12054;53.662;10.126;2022-07-05T03:26:21;16.00;95.70
23748;DHT22;12054;53.662;10.126;2022-07-05T03:28:46;16.00;95.70
23748;DHT22;12054;53.662;10.126;2022-07-05T03:31:12;15.90;95.80
23748;DHT22;12054;53.662;10.126;2022-07-05T03:33:37;15.90;95.80
23748;DHT22;12054;53.662;10.126;2022-07-05T03:36:03;15.90;95.80
23748;DHT22;12054;53.662;10.126;2022-07-05T03:38:29;15.90;95.90
23748;DHT22;12054;53.662;10.126;2022-07-05T03:40:54;15.90;96.00
23748;DHT22;12054;53.662;10.126;2022-07-05T03:43:20;15.80;96.40
23748;DHT22;12054;53.662;10.126;2022-07-05T03:45:45;15.80;96.20
23748;DHT22;12054;53.662;10.126;2022-07-05T03:48:11;15.80;96.20
23748;DHT22;12054;53.662;10.126;2022-07-05T03:50:36;15.90;96.30
23748;DHT22;12054;53.662;10.126;2022-07-05T03:53:02;15.80;96.40
23748;DHT22;12054;53.662;10.126;2022-07-05T03:55:27;15.80;96.80
23748;DHT22;12054;53.662;10.126;2022-07-05T03:57:53;15.80;96.60
23748;DHT22;12054;53.662;10.126;2022-07-05T04:00:18;15.70;96.60
23748;DHT22;12054;53.662;10.126;2022-07-05T04:02:44;15.70;96.70
23748;DHT22;12054;53.662;10.126;2022-07-05T04:05:09;15.70;96.80
23748;DHT22;12054;53.662;10.126;2022-07-05T04:07:55;15.70;96.90
23748;DHT22;12054;53.662;10.126;2022-07-05T04:10:22;15.70;97.00
23748;DHT22;12054;53.662;10.126;2022-07-05T04:12:47;15.70;97.10
23748;DHT22;12054;53.662;10.126;2022-07-05T04:15:14;15.60;97.10
23748;DHT22;12054;53.662;10.126;2022-07-05T04:17:47;15.60;97.30
23748;DHT22;12054;53.662;10.126;2022-07-05T04:20:12;15.60;97.40
23748;DHT22;12054;53.662;10.126;2022-07-05T04:22:38;15.70;97.50
23748;DHT22;12054;53.662;10.126;2022-07-05T04:25:04;15.60;97.50
23748;DHT22;12054;53.662;10.126;2022-07-05T04:27:52;15.60;97.60
23748;DHT22;12054;53.662;10.126;2022-07-05T04:30:20;15.60;97.70
23748;DHT22;12054;53.662;10.126;2022-07-05T04:32:46;15.60;97.70
23748;DHT22;12054;53.662;10.126;2022-07-05T04:35:12;15.60;97.80
23748;DHT22;12054;53.662;10.126;2022-07-05T04:37:38;15.60;97.90
23748;DHT22;12054;53.662;10.126;2022-07-05T04:40:05;15.60;98.00
23748;DHT22;12054;53.662;10.126;2022-07-05T04:42:31;15.60;98.20
23748;DHT22;12054;53.662;10.126;2022-07-05T04:44:57;15.60;98.30
23748;DHT22;12054;53.662;10.126;2022-07-05T04:47:23;15.60;98.40
23748;DHT22;12054;53.662;10.126;2022-07-05T04:49:48;15.60;98.50
23748;DHT22;12054;53.662;10.126;2022-07-05T04:52:14;15.60;98.70
23748;DHT22;12054;53.662;10.126;2022-07-05T04:54:39;15.60;98.90
23748;DHT22;12054;53.662;10.126;2022-07-05T04:57:05;15.60;99.00
23748;DHT22;12054;53.662;10.126;2022-07-05T04:59:30;15.50;99.00
23748;DHT22;12054;53.662;10.126;2022-07-05T05:01:56;15.50;99.10
23748;DHT22;12054;53.662;10.126;2022-07-05T05:04:22;15.50;99.20
23748;DHT22;12054;53.662;10.126;2022-07-05T05:06:47;15.50;99.30
23748;DHT22;12054;53.662;10.126;2022-07-05T05:09:13;15.50;99.40
23748;DHT22;12054;53.662;10.126;2022-07-05T05:11:38;15.50;99.50
23748;DHT22;12054;53.662;10.126;2022-07-05T05:14:04;15.50;99.70
23748;DHT22;12054;53.662;10.126;2022-07-05T05:16:29;15.50;99.80
23748;DHT22;12054;53.662;10.126;2022-07-05T05:18:55;15.60;99.90
23748;DHT22;12054;53.662;10.126;2022-07-05T05:21:21;15.60;99.90
23748;DHT22;12054;53.662;10.126;2022-07-05T05:23:46;15.50;99.90
23748;DHT22;12054;53.662;10.126;2022-07-05T05:26:12;15.60;99.90
23748;DHT22;12054;53.662;10.126;2022-07-05T05:28:38;15.60;99.90
23748;DHT22;12054;53.662;10.126;2022-07-05T05:31:04;15.60;99.90
23748;DHT22;12054;53.662;10.126;2022-07-05T05:33:30;15.60;99.90
23748;DHT22;12054;53.662;10.126;2022-07-05T05:35:57;15.60;99.90
23748;DHT22;12054;53.662;10.126;2022-07-05T05:38:23;15.70;99.90
23748;DHT22;12054;53.662;10.126;2022-07-05T05:40:49;15.70;99.90
23748;DHT22;12054;53.662;10.126;2022-07-05T05:43:14;15.70;99.90
23748;DHT22;12054;53.662;10.126;2022-07-05T05:45:40;15.70;99.90
23748;DHT22;12054;53.662;10.126;2022-07-05T05:48:06;15.80;99.90
23748;DHT22;12054;53.662;10.126;2022-07-05T05:50:36;15.80;99.90
23748;DHT22;12054;53.662;10.126;2022-07-05T05:53:04;15.80;99.90
23748;DHT22;12054;53.662;10.126;2022-07-05T05:55:30;15.90;99.90
23748;DHT22;12054;53.662;10.126;2022-07-05T05:57:56;16.00;99.90
23748;DHT22;12054;53.662;10.126;2022-07-05T06:00:27;16.00;99.90
23748;DHT22;12054;53.662;10.126;2022-07-05T06:02:52;16.00;99.90
23748;DHT22;12054;53.662;10.126;2022-07-05T06:05:18;16.10;99.90
23748;DHT22;12054;53.662;10.126;2022-07-05T06:07:52;16.10;99.90
23748;DHT22;12054;53.662;10.126;2022-07-05T06:10:23;16.10;99.90
23748;DHT22;12054;53.662;10.126;2022-07-05T06:12:50;16.20;99.90
23748;DHT22;12054;53.662;10.126;2022-07-05T06:15:16;16.20;99.90
23748;DHT22;12054;53.662;10.126;2022-07-05T06:17:42;16.30;99.90
23748;DHT22;12054;53.662;10.126;2022-07-05T06:20:13;16.30;99.90
23748;DHT22;12054;53.662;10.126;2022-07-05T06:22:39;16.40;99.90
23748;DHT22;12054;53.662;10.126;2022-07-05T06:25:05;16.40;99.90
23748;DHT22;12054;53.662;10.126;2022-07-05T06:27:31;16.50;99.90
23748;DHT22;12054;53.662;10.126;2022-07-05T06:29:56;16.60;99.90
23748;DHT22;12054;53.662;10.126;2022-07-05T06:32:23;16.50;99.90
23748;DHT22;12054;53.662;10.126;2022-07-05T06:34:49;16.80;99.90
23748;DHT22;12054;53.662;10.126;2022-07-05T06:37:14;16.80;99.90
23748;DHT22;12054;53.662;10.126;2022-07-05T06:39:40;16.90;99.70
23748;DHT22;12054;53.662;10.126;2022-07-05T06:42:05;17.00;99.50
23748;DHT22;12054;53.662;10.126;2022-07-05T06:44:31;17.00;99.40
23748;DHT22;12054;53.662;10.126;2022-07-05T06:46:56;17.00;99.30
23748;DHT22;12054;53.662;10.126;2022-07-05T06:49:22;17.10;99.30
23748;DHT22;12054;53.662;10.126;2022-07-05T06:51:47;17.10;99.30
23748;DHT22;12054;53.662;10.126;2022-07-05T06:54:13;17.20;99.10
23748;DHT22;12054;53.662;10.126;2022-07-05T06:56:38;17.20;98.90
23748;DHT22;12054;53.662;10.126;2022-07-05T06:59:04;17.20;98.80
23748;DHT22;12054;53.662;10.126;2022-07-05T07:01:30;17.30;98.80
23748;DHT22;12054;53.662;10.126;2022-07-05T07:03:55;17.30;98.80
23748;DHT22;12054;53.662;10.126;2022-07-05T07:06:21;17.40;98.70
23748;DHT22;12054;53.662;10.126;2022-07-05T07:08:47;17.50;98.70
23748;DHT22;12054;53.662;10.126;2022-07-05T07:11:32;17.50;98.70
23748;DHT22;12054;53.662;10.126;2022-07-05T07:13:57;17.50;98.60
23748;DHT22;12054;53.662;10.126;2022-07-05T07:16:23;17.50;98.60
23748;DHT22;12054;53.662;10.126;2022-07-05T07:18:48;17.60;98.80
23748;DHT22;12054;53.662;10.126;2022-07-05T07:21:14;17.80;98.80
23748;DHT22;12054;53.662;10.126;2022-07-05T07:23:41;18.00;98.70
23748;DHT22;12054;53.662;10.126;2022-07-05T07:26:13;18.20;98.70
23748;DHT22;12054;53.662;10.126;2022-07-05T07:28:39;18.40;98.70
23748;DHT22;12054;53.662;10.126;2022-07-05T07:31:05;18.60;98.40
23748;DHT22;12054;53.662;10.126;2022-07-05T07:33:37;18.70;98.10
23748;DHT22;12054;53.662;10.126;2022-07-05T07:36:13;18.80;97.80
23748;DHT22;12054;53.662;10.126;2022-07-05T07:38:39;19.00;97.50
23748;DHT22;12054;53.662;10.126;2022-07-05T07:41:07;19.00;97.10
23748;DHT22;12054;53.662;10.126;2022-07-05T07:43:45;19.00;96.70
23748;DHT22;12054;53.662;10.126;2022-07-05T07:46:10;19.10;96.30
23748;DHT22;12054;53.662;10.126;2022-07-05T07:48:36;19.20;95.90
23748;DHT22;12054;53.662;10.126;2022-07-05T07:51:08;19.30;95.70
23748;DHT22;12054;53.662;10.126;2022-07-05T07:53:33;19.50;95.20
23748;DHT22;12054;53.662;10.126;2022-07-05T07:55:59;19.60;94.90
23748;DHT22;12054;53.662;10.126;2022-07-05T07:58:24;19.50;94.70
23748;DHT22;12054;53.662;10.126;2022-07-05T08:00:50;19.60;94.60
23748;DHT22;12054;53.662;10.126;2022-07-05T08:03:15;19.80;94.40
23748;DHT22;12054;53.662;10.126;2022-07-05T08:05:41;19.90;94.10
23748;DHT22;12054;53.662;10.126;2022-07-05T08:08:06;20.10;93.70
23748;DHT22;12054;53.662;10.126;2022-07-05T08:10:32;20.20;93.10
23748;DHT22;12054;53.662;10.126;2022-07-05T08:12:59;20.40;92.70
23748;DHT22;12054;53.662;10.126;2022-07-05T08:15:24;20.50;92.00
23748;DHT22;12054;53.662;10.126;2022-07-05T08:17:50;20.70;91.40
23748;DHT22;12054;53.662;10.126;2022-07-05T08:20:37;20.80;91.20
23748;DHT22;12054;53.662;10.126;2022-07-05T08:23:21;21.00;90.00
23748;DHT22;12054;53.662;10.126;2022-07-05T08:25:46;21.10;88.70
23748;DHT22;12054;53.662;10.126;2022-07-05T08:28:15;21.30;88.20
23748;DHT22;12054;53.662;10.126;2022-07-05T08:30:40;21.40;87.40
23748;DHT22;12054;53.662;10.126;2022-07-05T08:33:06;21.60;85.50
23748;DHT22;12054;53.662;10.126;2022-07-05T08:35:32;21.70;84.10
23748;DHT22;12054;53.662;10.126;2022-07-05T08:37:57;21.80;81.90
23748;DHT22;12054;53.662;10.126;2022-07-05T08:40:25;21.80;81.80
23748;DHT22;12054;53.662;10.126;2022-07-05T08:42:53;21.70;81.90
23748;DHT22;12054;53.662;10.126;2022-07-05T08:45:20;21.70;81.40
23748;DHT22;12054;53.662;10.126;2022-07-05T08:47:46;21.70;81.50
23748;DHT22;12054;53.662;10.126;2022-07-05T08:50:13;21.70;81.10
23748;DHT22;12054;53.662;10.126;2022-07-05T08:52:40;21.70;80.70
23748;DHT22;12054;53.662;10.126;2022-07-05T08:55:07;21.80;80.30
23748;DHT22;12054;53.662;10.126;2022-07-05T08:57:33;21.80;80.30
23748;DHT22;12054;53.662;10.126;2022-07-05T08:59:58;21.90;79.90
23748;DHT22;12054;53.662;10.126;2022-07-05T09:02:24;22.10;79.30
23748;DHT22;12054;53.662;10.126;2022-07-05T09:04:52;22.20;78.00
23748;DHT22;12054;53.662;10.126;2022-07-05T09:07:20;22.40;77.40
23748;DHT22;12054;53.662;10.126;2022-07-05T09:09:49;22.50;77.00
23748;DHT22;12054;53.662;10.126;2022-07-05T09:12:16;22.60;75.70
23748;DHT22;12054;53.662;10.126;2022-07-05T09:14:45;22.50;75.20
23748;DHT22;12054;53.662;10.126;2022-07-05T09:17:19;22.60;75.20
23748;DHT22;12054;53.662;10.126;2022-07-05T09:22:47;22.50;74.70
23748;DHT22;12054;53.662;10.126;2022-07-05T09:25:37;22.50;74.90
23748;DHT22;12054;53.662;10.126;2022-07-05T09:28:04;22.40;74.90
23748;DHT22;12054;53.662;10.126;2022-07-05T09:30:38;22.40;75.20
23748;DHT22;12054;53.662;10.126;2022-07-05T09:33:23;22.40;75.10
23748;DHT22;12054;53.662;10.126;2022-07-05T09:35:54;22.40;74.00
23748;DHT22;12054;53.662;10.126;2022-07-05T09:38:23;22.40;73.40
23748;DHT22;12054;53.662;10.126;2022-07-05T09:40:54;22.50;72.10
23748;DHT22;12054;53.662;10.126;2022-07-05T09:43:24;22.50;71.90
23748;DHT22;12054;53.662;10.126;2022-07-05T09:45:57;22.50;72.10
23748;DHT22;12054;53.662;10.126;2022-07-05T09:48:23;22.50;72.50
23748;DHT22;12054;53.662;10.126;2022-07-05T09:50:49;22.50;72.40
23748;DHT22;12054;53.662;10.126;2022-07-05T09:53:19;22.50;72.60
23748;DHT22;12054;53.662;10.126;2022-07-05T09:56:06;22.50;72.70
23748;DHT22;12054;53.662;10.126;2022-07-05T09:58:32;22.50;72.10
23748;DHT22;12054;53.662;10.126;2022-07-05T10:00:58;22.60;72.30
23748;DHT22;12054;53.662;10.126;2022-07-05T10:03:24;22.60;72.10
23748;DHT22;12054;53.662;10.126;2022-07-05T10:05:50;22.80;71.80
23748;DHT22;12054;53.662;10.126;2022-07-05T10:08:20;22.90;71.90
23748;DHT22;12054;53.662;10.126;2022-07-05T10:10:45;22.90;72.10
23748;DHT22;12054;53.662;10.126;2022-07-05T10:13:14;23.10;72.00
23748;DHT22;12054;53.662;10.126;2022-07-05T10:15:39;23.20;70.60
23748;DHT22;12054;53.662;10.126;2022-07-05T10:18:13;23.20;70.10
23748;DHT22;12054;53.662;10.126;2022-07-05T10:20:42;23.30;69.90
23748;DHT22;12054;53.662;10.126;2022-07-05T10:23:12;23.30;69.00
23748;DHT22;12054;53.662;10.126;2022-07-05T10:25:40;23.40;68.40
23748;DHT22;12054;53.662;10.126;2022-07-05T10:28:07;23.40;68.30
23748;DHT22;12054;53.662;10.126;2022-07-05T10:30:34;23.50;68.00
23748;DHT22;12054;53.662;10.126;2022-07-05T10:33:02;23.50;67.60
23748;DHT22;12054;53.662;10.126;2022-07-05T10:35:29;23.60;67.70
23748;DHT22;12054;53.662;10.126;2022-07-05T10:38:03;23.60;67.20
23748;DHT22;12054;53.662;10.126;2022-07-05T10:40:32;23.60;66.80
23748;DHT22;12054;53.662;10.126;2022-07-05T10:43:02;23.70;66.40
23748;DHT22;12054;53.662;10.126;2022-07-05T10:45:39;23.80;66.40
23748;DHT22;12054;53.662;10.126;2022-07-05T10:50:52;24.00;64.20
23748;DHT22;12054;53.662;10.126;2022-07-05T11:06:24;24.30;63.20
23748;DHT22;12054;53.662;10.126;2022-07-05T11:11:34;24.30;62.30
23748;DHT22;12054;53.662;10.126;2022-07-05T11:14:02;24.50;63.40
23748;DHT22;12054;53.662;10.126;2022-07-05T11:16:33;24.50;64.00
23748;DHT22;12054;53.662;10.126;2022-07-05T11:19:12;24.60;64.60
23748;DHT22;12054;53.662;10.126;2022-07-05T11:21:40;24.80;63.70
23748;DHT22;12054;53.662;10.126;2022-07-05T11:24:28;24.90;63.20
23748;DHT22;12054;53.662;10.126;2022-07-05T11:26:58;24.80;62.00
23748;DHT22;12054;53.662;10.126;2022-07-05T11:29:46;24.90;62.30
23748;DHT22;12054;53.662;10.126;2022-07-05T11:32:15;24.90;61.60
23748;DHT22;12054;53.662;10.126;2022-07-05T11:34:49;25.00;61.70
23748;DHT22;12054;53.662;10.126;2022-07-05T11:42:57;25.20;61.00
23748;DHT22;12054;53.662;10.126;2022-07-05T11:45:23;25.20;60.90
23748;DHT22;12054;53.662;10.126;2022-07-05T11:47:51;25.30;61.10
23748;DHT22;12054;53.662;10.126;2022-07-05T11:50:28;25.30;60.60
23748;DHT22;12054;53.662;10.126;2022-07-05T11:52:54;25.40;60.70
23748;DHT22;12054;53.662;10.126;2022-07-05T11:55:20;25.50;60.90
23748;DHT22;12054;53.662;10.126;2022-07-05T11:57:50;25.50;60.90
23748;DHT22;12054;53.662;10.126;2022-07-05T12:02:54;25.60;60.60
23748;DHT22;12054;53.662;10.126;2022-07-05T12:05:20;25.60;61.40
23748;DHT22;12054;53.662;10.126;2022-07-05T12:07:50;25.70;59.80
23748;DHT22;12054;53.662;10.126;2022-07-05T12:10:16;25.70;59.60
23748;DHT22;12054;53.662;10.126;2022-07-05T12:13:07;25.90;59.90
23748;DHT22;12054;53.662;10.126;2022-07-05T12:15:34;25.90;59.40
23748;DHT22;12054;53.662;10.126;2022-07-05T12:18:02;25.90;59.40
23748;DHT22;12054;53.662;10.126;2022-07-05T12:20:34;25.80;59.30
23748;DHT22;12054;53.662;10.126;2022-07-05T12:23:02;25.90;59.60
23748;DHT22;12054;53.662;10.126;2022-07-05T12:25:30;25.90;60.10
23748;DHT22;12054;53.662;10.126;2022-07-05T12:27:57;26.00;59.00
23748;DHT22;12054;53.662;10.126;2022-07-05T12:30:24;25.80;58.70
23748;DHT22;12054;53.662;10.126;2022-07-05T12:35:34;25.90;58.40
23748;DHT22;12054;53.662;10.126;2022-07-05T12:40:42;26.00;59.00
23748;DHT22;12054;53.662;10.126;2022-07-05T12:43:13;26.00;59.00
23748;DHT22;12054;53.662;10.126;2022-07-05T12:45:41;26.10;59.10
23748;DHT22;12054;53.662;10.126;2022-07-05T12:48:08;26.00;59.20
23748;DHT22;12054;53.662;10.126;2022-07-05T12:53:14;26.00;59.20
23748;DHT22;12054;53.662;10.126;2022-07-05T12:56:09;26.10;59.20
23748;DHT22;12054;53.662;10.126;2022-07-05T12:58:55;26.20;59.40
23748;DHT22;12054;53.662;10.126;2022-07-05T13:01:41;26.20;59.30
23748;DHT22;12054;53.662;10.126;2022-07-05T13:04:15;26.20;59.10
23748;DHT22;12054;53.662;10.126;2022-07-05T13:06:43;26.20;59.30
23748;DHT22;12054;53.662;10.126;2022-07-05T13:09:11;26.20;59.50
23748;DHT22;12054;53.662;10.126;2022-07-05T13:11:36;26.20;59.50
23748;DHT22;12054;53.662;10.126;2022-07-05T13:14:02;26.20;59.50
23748;DHT22;12054;53.662;10.126;2022-07-05T13:16:28;26.20;59.50
23748;DHT22;12054;53.662;10.126;2022-07-05T13:18:53;26.20;59.40
23748;DHT22;12054;53.662;10.126;2022-07-05T13:21:19;26.10;59.20
23748;DHT22;12054;53.662;10.126;2022-07-05T13:23:44;26.10;59.30
23748;DHT22;12054;53.662;10.126;2022-07-05T13:26:10;26.10;59.40
23748;DHT22;12054;53.662;10.126;2022-07-05T13:28:36;26.10;59.60
23748;DHT22;12054;53.662;10.126;2022-07-05T13:31:01;26.10;59.90
23748;DHT22;12054;53.662;10.126;2022-07-05T13:33:27;26.00;60.10
23748;DHT22;12054;53.662;10.126;2022-07-05T13:35:52;26.00;60.60
23748;DHT22;12054;53.662;10.126;2022-07-05T13:38:18;26.00;60.60
23748;DHT22;12054;53.662;10.126;2022-07-05T13:40:44;26.00;60.60
23748;DHT22;12054;53.662;10.126;2022-07-05T13:43:09;25.90;61.10
23748;DHT22;12054;53.662;10.126;2022-07-05T13:45:35;25.90;61.20
23748;DHT22;12054;53.662;10.126;2022-07-05T13:48:01;25.90;61.40
23748;DHT22;12054;53.662;10.126;2022-07-05T13:50:26;25.80;61.40
23748;DHT22;12054;53.662;10.126;2022-07-05T13:52:59;25.70;61.40
23748;DHT22;12054;53.662;10.126;2022-07-05T13:55:24;25.70;61.50
23748;DHT22;12054;53.662;10.126;2022-07-05T13:57:50;25.60;61.50
23748;DHT22;12054;53.662;10.126;2022-07-05T14:00:17;25.50;61.60
23748;DHT22;12054;53.662;10.126;2022-07-05T14:02:43;25.40;61.80
23748;DHT22;12054;53.662;10.126;2022-07-05T14:05:09;25.40;62.20
23748;DHT22;12054;53.662;10.126;2022-07-05T14:07:35;25.20;62.30
23748;DHT22;12054;53.662;10.126;2022-07-05T14:10:02;25.30;62.60
23748;DHT22;12054;53.662;10.126;2022-07-05T14:12:27;25.10;62.60
23748;DHT22;12054;53.662;10.126;2022-07-05T14:14:53;25.10;62.60
23748;DHT22;12054;53.662;10.126;2022-07-05T14:17:18;25.10;62.60
23748;DHT22;12054;53.662;10.126;2022-07-05T14:19:44;25.00;62.40
23748;DHT22;12054;53.662;10.126;2022-07-05T14:22:10;25.00;62.50
23748;DHT22;12054;53.662;10.126;2022-07-05T14:24:35;25.00;62.70
23748;DHT22;12054;53.662;10.126;2022-07-05T14:27:01;24.90;62.80
23748;DHT22;12054;53.662;10.126;2022-07-05T14:29:26;24.90;62.90
23748;DHT22;12054;53.662;10.126;2022-07-05T14:31:52;24.90;63.00
23748;DHT22;12054;53.662;10.126;2022-07-05T14:34:17;24.90;63.00
23748;DHT22;12054;53.662;10.126;2022-07-05T14:36:43;24.80;63.00
23748;DHT22;12054;53.662;10.126;2022-07-05T14:39:08;24.80;63.30
23748;DHT22;12054;53.662;10.126;2022-07-05T14:41:34;24.80;63.40
23748;DHT22;12054;53.662;10.126;2022-07-05T14:43:59;24.80;63.50
23748;DHT22;12054;53.662;10.126;2022-07-05T14:46:25;24.80;63.80
23748;DHT22;12054;53.662;10.126;2022-07-05T14:48:51;24.70;64.00
23748;DHT22;12054;53.662;10.126;2022-07-05T14:51:16;24.70;64.20
23748;DHT22;12054;53.662;10.126;2022-07-05T14:53:42;24.70;64.60
23748;DHT22;12054;53.662;10.126;2022-07-05T14:56:10;24.60;64.60
23748;DHT22;12054;53.662;10.126;2022-07-05T14:58:36;24.50;64.90
23748;DHT22;12054;53.662;10.126;2022-07-05T15:01:01;24.50;65.10
23748;DHT22;12054;53.662;10.126;2022-07-05T15:03:27;24.50;65.20
23748;DHT22;12054;53.662;10.126;2022-07-05T15:05:53;24.40;65.10
23748;DHT22;12054;53.662;10.126;2022-07-05T15:08:19;24.40;65.10
23748;DHT22;12054;53.662;10.126;2022-07-05T15:10:47;24.40;65.30
23748;DHT22;12054;53.662;10.126;2022-07-05T15:13:14;24.30;65.30
23748;DHT22;12054;53.662;10.126;2022-07-05T15:15:39;24.30;65.60
23748;DHT22;12054;53.662;10.126;2022-07-05T15:18:12;24.20;65.80
23748;DHT22;12054;53.662;10.126;2022-07-05T15:20:39;24.20;66.00
23748;DHT22;12054;53.662;10.126;2022-07-05T15:23:05;24.10;66.30
23748;DHT22;12054;53.662;10.126;2022-07-05T15:25:31;24.10;66.60
23748;DHT22;12054;53.662;10.126;2022-07-05T15:27:56;24.10;66.90
23748;DHT22;12054;53.662;10.126;2022-07-05T15:30:29;24.10;67.20
23748;DHT22;12054;53.662;10.126;2022-07-05T15:32:55;24.00;67.40
23748;DHT22;12054;53.662;10.126;2022-07-05T15:35:21;24.00;67.70
23748;DHT22;12054;53.662;10.126;2022-07-05T15:37:48;24.00;68.20
23748;DHT22;12054;53.662;10.126;2022-07-05T15:40:13;24.00;68.30
23748;DHT22;12054;53.662;10.126;2022-07-05T15:42:39;24.00;68.30
23748;DHT22;12054;53.662;10.126;2022-07-05T15:45:05;24.00;68.30
23748;DHT22;12054;53.662;10.126;2022-07-05T15:47:30;23.90;68.30
23748;DHT22;12054;53.662;10.126;2022-07-05T15:49:56;23.90;68.40
23748;DHT22;12054;53.662;10.126;2022-07-05T15:52:22;23.90;68.40
23748;DHT22;12054;53.662;10.126;2022-07-05T15:54:47;23.90;68.40